createdAt,value
2019-01-23T00:01:18.952Z,53.15
2019-01-23T00:04:06.633Z,56.90
2019-01-23T00:06:54.410Z,54.27
2019-01-23T00:09:22.722Z,52.95
2019-01-23T00:12:10.385Z,54.58
2019-01-23T00:14:39.039Z,55.00
2019-01-23T00:17:07.378Z,50.15
2019-01-23T00:19:35.682Z,53.48
2019-01-23T00:24:57.590Z,54.83
2019-01-23T00:27:26.163Z,57.50
2019-01-23T00:32:42.126Z,54.40
2019-01-23T00:38:24.769Z,52.88
2019-01-23T00:40:53.091Z,52.37
2019-01-23T00:43:40.898Z,54.40
2019-01-23T00:46:09.227Z,52.03
2019-01-23T00:48:37.563Z,54.23
2019-01-23T00:51:06.218Z,52.00
2019-01-23T00:53:34.559Z,54.20
2019-01-23T00:56:02.868Z,52.33
2019-01-23T00:58:31.178Z,55.08
2019-01-23T01:01:18.970Z,56.33
2019-01-23T01:04:06.653Z,50.28
2019-01-23T01:06:34.980Z,54.83
2019-01-23T01:12:11.376Z,51.77
2019-01-23T01:14:39.700Z,55.60
2019-01-23T01:17:08.038Z,56.23
2019-01-23T01:19:36.355Z,54.13
2019-01-23T01:22:44.981Z,53.90
2019-01-23T01:25:53.355Z,56.95
2019-01-23T01:28:22.030Z,57.30
2019-01-23T01:30:50.366Z,56.68
2019-01-23T01:33:18.709Z,64.10
2019-01-23T01:35:47.376Z,60.38
2019-01-23T01:41:09.930Z,57.67
2019-01-23T01:43:38.262Z,57.73
2019-01-23T01:46:06.575Z,55.80
2019-01-23T01:48:35.270Z,57.70
2019-01-23T01:51:03.599Z,58.50
2019-01-23T01:53:31.924Z,59.88
2019-01-23T01:56:00.251Z,53.40
2019-01-23T01:58:28.563Z,59.60
2019-01-23T02:00:56.911Z,59.35
2019-01-23T02:03:44.870Z,55.43
2019-01-23T02:06:13.212Z,61.13
2019-01-23T02:08:41.522Z,55.65
2019-01-23T02:11:09.853Z,59.90
2019-01-23T02:16:25.507Z,56.80
2019-01-23T02:18:53.822Z,58.25
2019-01-23T02:21:22.156Z,57.08
2019-01-23T02:23:50.483Z,59.27
2019-01-23T02:26:18.797Z,57.55
2019-01-23T02:28:47.423Z,54.55
2019-01-23T02:31:15.748Z,57.25
2019-01-23T02:33:44.096Z,60.23
2019-01-23T02:36:12.421Z,57.10
2019-01-23T02:38:41.041Z,54.75
2019-01-23T02:41:28.484Z,54.95
2019-01-23T02:43:56.828Z,56.85
2019-01-23T02:46:25.150Z,53.48
2019-01-23T02:48:53.466Z,59.53
2019-01-23T02:51:21.809Z,53.30
2019-01-23T02:53:50.135Z,54.58
2019-01-23T02:56:18.451Z,49.38
2019-01-23T02:58:47.114Z,52.25
2019-01-23T03:01:15.443Z,46.92
2019-01-23T03:06:50.770Z,48.05
2019-01-23T03:09:19.077Z,48.63
2019-01-23T03:12:06.790Z,45.28
2019-01-23T03:14:35.111Z,44.20
2019-01-23T03:17:03.436Z,46.35
2019-01-23T03:22:07.074Z,43.70
2019-01-23T03:24:35.406Z,44.37
2019-01-23T03:27:03.730Z,47.38
2019-01-23T03:29:32.084Z,46.98
2019-01-23T03:32:19.533Z,48.07
2019-01-23T03:34:47.863Z,48.35
2019-01-23T03:37:16.723Z,50.85
2019-01-23T03:42:20.794Z,47.70
2019-01-23T03:45:29.246Z,53.85
2019-01-23T03:47:57.896Z,48.60
2019-01-23T03:50:26.234Z,46.98
2019-01-23T03:52:54.545Z,48.33
2019-01-23T03:55:23.135Z,49.55
2019-01-23T03:57:51.476Z,50.65
2019-01-23T04:00:59.849Z,50.20
2019-01-23T04:03:28.172Z,45.73
2019-01-23T04:05:56.522Z,54.60
2019-01-23T04:08:24.838Z,52.10
2019-01-23T04:10:53.443Z,53.30
2019-01-23T04:13:41.469Z,52.80
2019-01-23T04:16:09.753Z,52.78
2019-01-23T04:18:38.074Z,49.17
2019-01-23T04:21:06.357Z,50.78
2019-01-23T04:23:54.014Z,51.37
2019-01-23T04:26:22.316Z,52.23
2019-01-23T04:28:50.634Z,54.40
2019-01-23T04:31:18.942Z,50.58
2019-01-23T04:33:47.249Z,55.87
2019-01-23T04:36:15.550Z,56.55
2019-01-23T04:38:44.198Z,52.38
2019-01-23T04:41:12.500Z,50.90
2019-01-23T04:43:40.785Z,50.28
2019-01-23T04:46:09.096Z,50.20
2019-01-23T04:48:37.408Z,50.30
2019-01-23T04:51:24.845Z,53.33
2019-01-23T04:53:53.137Z,50.85
2019-01-23T04:56:40.864Z,50.28
2019-01-23T04:59:09.169Z,49.95
2019-01-23T05:04:11.535Z,52.00
2019-01-23T05:06:39.865Z,49.40
2019-01-23T05:09:48.211Z,50.23
2019-01-23T05:15:43.885Z,52.88
2019-01-23T05:18:12.189Z,54.20
2019-01-23T05:20:40.811Z,51.70
2019-01-23T05:23:09.114Z,55.58
2019-01-23T05:25:37.422Z,50.70
2019-01-23T05:28:05.829Z,50.85
2019-01-23T05:30:34.112Z,56.25
2019-01-23T05:33:02.400Z,56.88
2019-01-23T05:35:31.072Z,60.55
2019-01-23T05:37:59.368Z,57.70
2019-01-23T05:40:28.032Z,55.30
2019-01-23T05:42:56.338Z,62.17
2019-01-23T05:45:24.641Z,53.68
2019-01-23T05:47:52.953Z,53.00
2019-01-23T05:50:21.360Z,55.52
2019-01-23T05:52:49.657Z,128.80
2019-01-23T05:55:58.026Z,57.08
2019-01-23T05:58:26.609Z,57.20
2019-01-23T06:01:14.378Z,57.60
2019-01-23T06:04:02.046Z,55.92
2019-01-23T06:06:30.369Z,63.20
2019-01-23T06:08:58.656Z,58.05
2019-01-23T06:11:26.977Z,59.95
2019-01-23T06:13:55.351Z,59.40
2019-01-23T06:16:23.654Z,57.38
2019-01-23T06:18:51.986Z,59.25
2019-01-23T06:21:20.289Z,56.95
2019-01-23T06:23:48.604Z,56.92
2019-01-23T06:26:17.182Z,58.02
2019-01-23T06:28:45.491Z,59.35
2019-01-23T06:31:33.235Z,56.73
2019-01-23T06:36:35.379Z,61.17
2019-01-23T06:42:18.418Z,64.70
2019-01-23T06:44:46.709Z,61.02
2019-01-23T06:47:34.391Z,61.35
2019-01-23T06:50:21.821Z,62.90
2019-01-23T06:52:50.124Z,63.28
2019-01-23T06:55:58.716Z,58.13
2019-01-23T06:58:27.329Z,62.30
2019-01-23T07:00:55.638Z,62.00
2019-01-23T07:06:11.268Z,63.75
2019-01-23T07:08:39.558Z,58.25
2019-01-23T07:11:27.237Z,57.60
2019-01-23T07:13:55.542Z,63.25
2019-01-23T07:19:11.168Z,56.40
2019-01-23T07:21:39.475Z,55.78
2019-01-23T07:24:07.794Z,56.73
2019-01-23T07:26:36.092Z,56.37
2019-01-23T07:29:04.704Z,57.40
2019-01-23T07:31:52.379Z,56.65
2019-01-23T07:34:20.702Z,61.37
2019-01-23T07:36:49.014Z,56.48
2019-01-23T07:39:17.323Z,53.07
2019-01-23T07:41:45.630Z,54.05
2019-01-23T07:44:13.942Z,54.95
2019-01-23T07:46:42.251Z,53.95
2019-01-23T07:49:10.552Z,53.02
2019-01-23T07:51:38.871Z,53.65
2019-01-23T07:54:07.185Z,54.08
2019-01-23T07:56:35.808Z,52.85
2019-01-23T07:59:04.111Z,50.78
2019-01-23T08:01:51.558Z,49.60
2019-01-23T08:04:19.840Z,48.50
2019-01-23T08:06:48.141Z,55.30
2019-01-23T08:09:35.834Z,51.40
2019-01-23T08:12:10.531Z,48.55
2019-01-23T08:14:34.601Z,47.08
2019-01-23T08:17:02.891Z,53.13
2019-01-23T08:19:31.461Z,49.30
2019-01-23T08:21:59.758Z,55.53
2019-01-23T08:24:28.063Z,52.80
2019-01-23T08:26:56.366Z,51.60
2019-01-23T08:29:24.987Z,50.67
2019-01-23T08:31:53.277Z,53.15
2019-01-23T08:36:55.300Z,52.70
2019-01-23T08:39:23.622Z,46.95
2019-01-23T08:41:51.913Z,52.13
2019-01-23T08:44:20.222Z,49.05
2019-01-23T08:46:48.541Z,53.10
2019-01-23T08:52:23.518Z,51.42
2019-01-23T08:54:51.796Z,49.93
2019-01-23T08:57:20.099Z,49.58
2019-01-23T08:59:48.390Z,56.55
2019-01-23T09:02:36.068Z,53.87
2019-01-23T09:05:44.665Z,51.65
2019-01-23T09:10:47.797Z,53.80
2019-01-23T09:13:35.752Z,49.83
2019-01-23T09:16:04.310Z,54.00
2019-01-23T09:18:32.629Z,50.50
2019-01-23T09:21:20.294Z,52.05
2019-01-23T09:23:48.625Z,52.60
2019-01-23T09:26:16.915Z,54.53
2019-01-23T09:28:45.215Z,52.05
2019-01-23T09:31:53.556Z,50.00
2019-01-23T09:35:00.837Z,49.53
2019-01-23T09:38:09.222Z,54.70
2019-01-23T09:41:17.582Z,52.70
2019-01-23T09:44:25.913Z,53.13
2019-01-23T09:47:34.335Z,48.63
2019-01-23T09:50:41.344Z,50.70
2019-01-23T09:53:50.015Z,48.87
2019-01-23T09:56:18.351Z,49.88
2019-01-23T09:59:06.004Z,50.95
2019-01-23T10:01:34.635Z,50.73
2019-01-23T10:06:50.266Z,50.58
2019-01-23T10:12:05.982Z,52.60
2019-01-23T10:14:34.270Z,45.47
2019-01-23T10:17:42.626Z,51.92
2019-01-23T10:20:10.925Z,49.67
2019-01-23T10:22:39.237Z,52.65
2019-01-23T10:25:47.554Z,46.70
2019-01-23T10:28:35.318Z,50.48
2019-01-23T10:31:06.816Z,52.57
2019-01-23T10:33:33.945Z,50.25
2019-01-23T10:36:02.243Z,48.33
2019-01-23T10:38:30.566Z,49.58
2019-01-23T10:40:58.872Z,53.48
2019-01-23T10:46:20.073Z,49.27
2019-01-23T10:48:48.361Z,51.80
2019-01-23T10:51:36.001Z,47.60
2019-01-23T10:54:44.356Z,56.10
2019-01-23T10:57:12.984Z,55.03
2019-01-23T10:59:41.279Z,52.88
2019-01-23T11:02:09.651Z,56.33
2019-01-23T11:04:38.217Z,52.53
2019-01-23T11:07:06.537Z,52.35
2019-01-23T11:09:34.836Z,50.70
2019-01-23T11:12:03.151Z,51.90
2019-01-23T11:14:31.701Z,52.20
2019-01-23T11:17:00.006Z,49.27
2019-01-23T11:19:47.745Z,51.77
2019-01-23T11:22:16.061Z,51.98
2019-01-23T11:24:44.709Z,53.15
2019-01-23T11:27:12.995Z,50.83
2019-01-23T11:29:41.305Z,50.15
2019-01-23T11:32:09.592Z,50.83
2019-01-23T11:34:37.904Z,57.85
2019-01-23T11:37:46.240Z,47.20
2019-01-23T11:40:54.592Z,49.18
2019-01-23T11:46:10.224Z,51.73
2019-01-23T11:48:38.535Z,53.68
2019-01-23T11:51:46.890Z,52.00
2019-01-23T11:54:15.184Z,50.53
2019-01-23T11:56:43.488Z,51.33
2019-01-23T11:59:11.780Z,57.93
2019-01-23T12:01:40.072Z,53.80
2019-01-23T12:04:08.406Z,58.10
2019-01-23T12:06:36.693Z,52.33
2019-01-23T12:09:45.059Z,53.73
2019-01-23T12:12:13.355Z,59.13
2019-01-23T12:17:23.764Z,51.10
2019-01-23T12:19:52.068Z,52.88
2019-01-23T12:22:20.433Z,55.50
2019-01-23T12:24:48.744Z,54.93
2019-01-23T12:27:17.028Z,55.55
2019-01-23T12:29:45.325Z,53.20
2019-01-23T12:32:33.267Z,51.35
2019-01-23T12:35:20.688Z,52.78
2019-01-23T12:38:08.112Z,48.93
2019-01-23T12:40:55.761Z,55.25
2019-01-23T12:43:43.409Z,55.88
2019-01-23T12:48:59.306Z,51.70
2019-01-23T12:51:27.594Z,53.68
2019-01-23T12:53:55.922Z,48.38
2019-01-23T12:56:43.612Z,50.60
2019-01-23T12:59:11.919Z,56.85
2019-01-23T13:01:42.223Z,54.40
2019-01-23T13:04:10.593Z,51.70
2019-01-23T13:06:38.894Z,55.33
2019-01-23T13:09:47.246Z,50.17
2019-01-23T13:12:35.002Z,53.05
2019-01-23T13:15:22.858Z,57.20
2019-01-23T13:18:10.594Z,51.83
2019-01-23T13:20:38.905Z,52.30
2019-01-23T13:23:07.539Z,49.53
2019-01-23T13:25:35.852Z,53.43
2019-01-23T13:28:23.525Z,53.45
2019-01-23T13:31:10.959Z,51.60
2019-01-23T13:33:39.556Z,52.25
2019-01-23T13:36:47.989Z,55.57
2019-01-23T13:39:56.312Z,49.80
2019-01-23T13:44:59.072Z,50.17
2019-01-23T13:47:46.834Z,53.00
2019-01-23T13:50:55.156Z,49.85
2019-01-23T13:53:23.463Z,50.88
2019-01-23T13:56:11.389Z,50.80
2019-01-23T13:58:41.938Z,50.05
2019-01-23T14:03:57.367Z,53.90
2019-01-23T14:06:44.996Z,48.98
2019-01-23T14:09:13.301Z,50.33
2019-01-23T14:12:00.800Z,53.68
2019-01-23T14:17:03.449Z,55.52
2019-01-23T14:20:11.872Z,53.60
2019-01-23T14:22:40.168Z,58.90
2019-01-23T14:25:48.587Z,56.48
2019-01-23T14:28:36.908Z,50.95
2019-01-23T14:31:25.870Z,50.95
2019-01-23T14:34:13.289Z,51.73
2019-01-23T14:36:41.597Z,52.50
2019-01-23T14:39:09.916Z,56.30
2019-01-23T14:41:38.253Z,55.10
2019-01-23T14:44:06.565Z,53.87
2019-01-23T14:46:54.252Z,53.23
2019-01-23T14:49:22.856Z,51.77
2019-01-23T14:51:51.179Z,47.53
2019-01-23T14:54:19.478Z,54.70
2019-01-23T14:57:07.161Z,52.20
2019-01-23T14:59:35.461Z,52.75
2019-01-23T15:02:23.146Z,53.20
2019-01-23T15:05:10.826Z,51.40
2019-01-23T15:10:53.383Z,51.18
2019-01-23T15:13:40.827Z,53.92
2019-01-23T15:16:09.132Z,55.40
2019-01-23T15:21:11.395Z,54.67
2019-01-23T15:23:39.714Z,55.15
2019-01-23T15:26:08.369Z,57.83
2019-01-23T15:28:36.684Z,57.17
2019-01-23T15:31:24.353Z,56.37
2019-01-23T15:33:52.679Z,56.40
2019-01-23T15:36:40.317Z,53.68
2019-01-23T15:39:08.963Z,55.88
2019-01-23T15:46:59.194Z,55.52
2019-01-23T15:49:27.791Z,49.63
2019-01-23T15:51:56.093Z,54.70
2019-01-23T15:54:24.386Z,49.35
2019-01-23T15:57:12.233Z,52.38
2019-01-23T15:59:40.534Z,54.80
2019-01-23T16:02:49.174Z,54.63
2019-01-23T16:08:06.441Z,59.85
2019-01-23T16:10:34.751Z,59.63
2019-01-23T16:13:03.164Z,55.65
2019-01-23T16:15:33.996Z,58.38
2019-01-23T16:18:22.494Z,56.77
2019-01-23T16:20:51.128Z,62.13
2019-01-23T16:23:59.743Z,55.60
2019-01-23T16:26:28.045Z,52.60
2019-01-23T16:28:56.366Z,61.05
2019-01-23T16:31:24.672Z,53.55
2019-01-23T16:34:12.324Z,53.20
2019-01-23T16:36:40.634Z,49.90
2019-01-23T16:39:28.658Z,57.33
2019-01-23T16:41:56.949Z,57.58
2019-01-23T16:44:44.638Z,59.50
2019-01-23T16:47:32.566Z,61.30
2019-01-23T16:50:01.163Z,57.08
2019-01-23T16:52:29.744Z,53.40
2019-01-23T17:06:34.006Z,54.73
2019-01-23T17:09:42.333Z,56.80
2019-01-23T17:14:44.944Z,50.75
2019-01-23T17:17:13.249Z,55.78
2019-01-23T17:22:28.887Z,55.25
2019-01-23T17:24:57.189Z,57.70
2019-01-23T17:27:25.779Z,54.40
2019-01-23T17:29:54.380Z,53.75
2019-01-23T17:32:24.077Z,57.10
2019-01-23T17:35:11.874Z,57.03
2019-01-23T17:37:59.609Z,58.38
2019-01-23T17:43:02.066Z,51.68
2019-01-23T17:45:49.737Z,63.23
2019-01-23T17:51:05.693Z,60.67
2019-01-23T17:53:33.984Z,58.60
2019-01-23T17:56:02.649Z,60.30
2019-01-23T17:58:30.936Z,57.07
2019-01-23T18:01:18.614Z,56.65
2019-01-23T18:03:46.906Z,64.27
2019-01-23T18:08:49.928Z,54.15
2019-01-23T18:11:18.228Z,56.13
2019-01-23T18:14:05.911Z,55.25
2019-01-23T18:16:34.254Z,56.28
2019-01-23T18:19:02.893Z,59.83
2019-01-23T18:24:18.538Z,52.45
2019-01-23T18:26:47.168Z,55.52
2019-01-23T18:29:34.577Z,58.35
2019-01-23T18:32:42.945Z,53.92
2019-01-23T18:39:02.586Z,53.03
2019-01-23T18:42:10.988Z,51.85
2019-01-23T18:45:19.332Z,57.03
2019-01-23T18:48:27.675Z,56.40
2019-01-23T18:51:36.011Z,52.70
2019-01-23T18:54:44.355Z,55.10
2019-01-23T18:57:52.685Z,57.10
2019-01-23T19:01:01.031Z,55.75
2019-01-23T19:06:18.305Z,55.90
2019-01-23T19:09:06.006Z,55.30
2019-01-23T19:11:53.427Z,58.75
2019-01-23T19:14:41.121Z,57.98
2019-01-23T19:17:09.421Z,57.48
2019-01-23T19:19:38.023Z,54.65
2019-01-23T19:24:41.033Z,63.05
2019-01-23T19:27:29.182Z,57.27
2019-01-23T19:29:57.499Z,57.80
2019-01-23T19:35:18.979Z,70.10
2019-01-23T19:37:47.603Z,68.05
2019-01-23T19:40:55.944Z,63.98
2019-01-23T19:43:24.248Z,58.70
2019-01-23T19:45:52.548Z,59.05
2019-01-23T19:50:55.177Z,60.60
2019-01-23T19:53:23.498Z,57.53
2019-01-23T19:56:11.125Z,63.57
2019-01-23T19:58:58.817Z,60.65
2019-01-23T20:01:46.455Z,64.60
2019-01-23T20:04:15.068Z,61.40
2019-01-23T20:07:02.995Z,61.00
2019-01-23T20:09:31.325Z,56.13
2019-01-23T20:11:59.626Z,62.20
2019-01-23T20:14:27.918Z,61.85
2019-01-23T20:17:15.365Z,60.98
2019-01-23T20:22:31.009Z,66.60
2019-01-23T20:25:18.677Z,63.90
2019-01-23T20:27:47.005Z,61.63
2019-01-23T20:30:35.324Z,64.27
2019-01-23T20:35:37.814Z,59.18
2019-01-23T20:38:25.508Z,61.63
2019-01-23T20:41:13.135Z,63.33
2019-01-23T20:44:00.572Z,60.23
2019-01-23T20:46:47.997Z,60.70
2019-01-23T20:49:16.312Z,56.05
2019-01-23T20:51:44.617Z,63.95
2019-01-23T20:54:12.959Z,61.00
2019-01-23T20:56:41.254Z,59.45
2019-01-23T21:01:56.889Z,57.83
2019-01-23T21:04:25.195Z,60.73
2019-01-23T21:06:53.512Z,68.37
2019-01-23T21:09:41.194Z,61.20
2019-01-23T21:14:43.035Z,58.85
2019-01-23T21:17:11.684Z,61.48
2019-01-23T21:19:39.969Z,62.67
2019-01-23T21:22:08.276Z,61.65
2019-01-23T21:24:36.617Z,61.77
2019-01-23T21:27:04.976Z,66.22
2019-01-23T21:29:45.759Z,69.27
2019-01-23T21:34:48.398Z,61.77
2019-01-23T21:37:36.099Z,63.02
2019-01-23T21:40:44.501Z,66.97
2019-01-23T21:43:12.859Z,65.55
2019-01-23T21:45:41.462Z,61.98
2019-01-23T21:48:29.218Z,64.58
2019-01-23T21:50:57.520Z,65.12
2019-01-23T21:53:26.154Z,64.22
2019-01-23T21:55:54.460Z,66.42
2019-01-23T22:01:10.085Z,64.67
2019-01-23T22:03:38.374Z,67.40
2019-01-23T22:06:06.750Z,68.28
2019-01-23T22:08:35.041Z,68.07
2019-01-23T22:11:03.650Z,70.57
2019-01-23T22:13:31.940Z,66.27
2019-01-23T22:16:19.463Z,70.28
2019-01-23T22:18:47.756Z,68.57
2019-01-23T22:21:16.046Z,72.30
2019-01-23T22:23:44.355Z,67.15
2019-01-23T22:26:31.849Z,72.35
2019-01-23T22:29:00.507Z,68.92
2019-01-23T22:31:28.801Z,74.45
2019-01-23T22:33:57.117Z,72.40
2019-01-23T22:36:25.775Z,64.35
2019-01-23T22:38:54.053Z,68.87
2019-01-23T22:41:22.342Z,63.28
2019-01-23T22:44:10.298Z,66.60
2019-01-23T22:46:38.603Z,61.15
2019-01-23T22:49:06.890Z,67.45
2019-01-23T22:51:35.460Z,64.53
2019-01-23T22:57:11.859Z,65.32
2019-01-23T23:02:46.926Z,64.53
2019-01-23T23:05:55.284Z,74.60
2019-01-23T23:08:23.594Z,67.62
2019-01-23T23:10:52.298Z,70.87
2019-01-23T23:13:39.991Z,68.15
2019-01-23T23:16:08.592Z,67.03
2019-01-23T23:18:56.274Z,69.35
2019-01-23T23:21:24.582Z,64.15
2019-01-23T23:23:53.189Z,67.47
2019-01-23T23:26:21.484Z,61.05
2019-01-23T23:28:49.797Z,68.07
2019-01-23T23:31:18.104Z,68.70
2019-01-23T23:33:46.408Z,68.87
2019-01-23T23:36:14.749Z,67.78
2019-01-23T23:43:50.564Z,63.35
2019-01-23T23:46:18.865Z,67.60
2019-01-23T23:49:06.545Z,67.62
2019-01-23T23:51:34.845Z,59.45
2019-01-23T23:54:03.154Z,64.30
2019-01-23T23:56:31.445Z,63.92
2019-01-23T23:59:00.093Z,66.40
